sensor_id;sensor_type;location;lat;lon;timestamp;P1;durP1;ratioP1;P2;durP2;ratioP2
18290;SDS011;9271;48.590;8.866;2023-09-30T00:01:55;9.80;;;5.40;;
18290;SDS011;9271;48.590;8.866;2023-09-30T00:04:22;10.73;;;5.67;;
18290;SDS011;9271;48.590;8.866;2023-09-30T00:06:48;9.87;;;5.50;;
18290;SDS011;9271;48.590;8.866;2023-09-30T00:09:16;7.63;;;4.70;;
18290;SDS011;9271;48.590;8.866;2023-09-30T00:11:43;6.77;;;4.47;;
18290;SDS011;9271;48.590;8.866;2023-09-30T00:14:10;6.80;;;4.17;;
18290;SDS011;9271;48.590;8.866;2023-09-30T00:16:36;6.10;;;3.67;;
18290;SDS011;9271;48.590;8.866;2023-09-30T00:19:03;6.83;;;3.67;;
18290;SDS011;9271;48.590;8.866;2023-09-30T00:21:29;7.07;;;4.00;;
18290;SDS011;9271;48.590;8.866;2023-09-30T00:23:56;7.47;;;4.00;;
18290;SDS011;9271;48.590;8.866;2023-09-30T00:26:24;6.87;;;3.90;;
18290;SDS011;9271;48.590;8.866;2023-09-30T00:28:51;8.50;;;4.33;;
18290;SDS011;9271;48.590;8.866;2023-09-30T00:31:18;7.07;;;4.10;;
18290;SDS011;9271;48.590;8.866;2023-09-30T00:33:44;7.87;;;4.50;;
18290;SDS011;9271;48.590;8.866;2023-09-30T00:36:11;7.50;;;4.43;;
18290;SDS011;9271;48.590;8.866;2023-09-30T00:38:37;6.37;;;4.23;;
18290;SDS011;9271;48.590;8.866;2023-09-30T00:41:05;6.90;;;4.50;;
18290;SDS011;9271;48.590;8.866;2023-09-30T00:43:33;7.67;;;4.43;;
18290;SDS011;9271;48.590;8.866;2023-09-30T00:46:01;9.20;;;4.90;;
18290;SDS011;9271;48.590;8.866;2023-09-30T00:48:32;6.77;;;4.30;;
18290;SDS011;9271;48.590;8.866;2023-09-30T00:50:59;6.67;;;4.10;;
18290;SDS011;9271;48.590;8.866;2023-09-30T00:53:26;6.90;;;4.20;;
18290;SDS011;9271;48.590;8.866;2023-09-30T00:55:54;7.90;;;4.37;;
18290;SDS011;9271;48.590;8.866;2023-09-30T00:58:22;6.00;;;3.83;;
18290;SDS011;9271;48.590;8.866;2023-09-30T01:00:52;7.97;;;3.87;;
18290;SDS011;9271;48.590;8.866;2023-09-30T01:03:19;9.37;;;4.50;;
18290;SDS011;9271;48.590;8.866;2023-09-30T01:05:46;7.63;;;4.20;;
18290;SDS011;9271;48.590;8.866;2023-09-30T01:08:13;6.80;;;4.60;;
18290;SDS011;9271;48.590;8.866;2023-09-30T01:10:39;9.00;;;4.90;;
18290;SDS011;9271;48.590;8.866;2023-09-30T01:13:06;7.73;;;4.30;;
18290;SDS011;9271;48.590;8.866;2023-09-30T01:15:32;19.10;;;13.87;;
18290;SDS011;9271;48.590;8.866;2023-09-30T01:18:00;11.30;;;6.67;;
18290;SDS011;9271;48.590;8.866;2023-09-30T01:20:27;8.53;;;4.43;;
18290;SDS011;9271;48.590;8.866;2023-09-30T01:22:55;6.60;;;3.93;;
18290;SDS011;9271;48.590;8.866;2023-09-30T01:25:23;7.93;;;4.90;;
18290;SDS011;9271;48.590;8.866;2023-09-30T01:27:50;6.40;;;3.90;;
18290;SDS011;9271;48.590;8.866;2023-09-30T01:30:17;9.90;;;4.37;;
18290;SDS011;9271;48.590;8.866;2023-09-30T01:32:44;9.23;;;4.87;;
18290;SDS011;9271;48.590;8.866;2023-09-30T01:35:10;7.33;;;3.90;;
18290;SDS011;9271;48.590;8.866;2023-09-30T01:37:37;6.30;;;4.07;;
18290;SDS011;9271;48.590;8.866;2023-09-30T01:40:05;8.40;;;4.40;;
18290;SDS011;9271;48.590;8.866;2023-09-30T01:42:36;9.80;;;5.23;;
18290;SDS011;9271;48.590;8.866;2023-09-30T01:45:03;9.37;;;5.37;;
18290;SDS011;9271;48.590;8.866;2023-09-30T01:47:31;8.17;;;4.47;;
18290;SDS011;9271;48.590;8.866;2023-09-30T01:49:57;7.83;;;4.43;;
18290;SDS011;9271;48.590;8.866;2023-09-30T01:52:24;7.07;;;4.70;;
18290;SDS011;9271;48.590;8.866;2023-09-30T01:54:51;4.93;;;3.60;;
18290;SDS011;9271;48.590;8.866;2023-09-30T01:57:20;7.57;;;3.97;;
18290;SDS011;9271;48.590;8.866;2023-09-30T01:59:47;8.57;;;5.10;;
18290;SDS011;9271;48.590;8.866;2023-09-30T02:02:14;6.37;;;4.00;;
18290;SDS011;9271;48.590;8.866;2023-09-30T02:04:41;6.70;;;4.63;;
18290;SDS011;9271;48.590;8.866;2023-09-30T02:07:08;8.17;;;4.43;;
18290;SDS011;9271;48.590;8.866;2023-09-30T02:09:35;8.33;;;4.37;;
18290;SDS011;9271;48.590;8.866;2023-09-30T02:12:02;7.03;;;4.80;;
18290;SDS011;9271;48.590;8.866;2023-09-30T02:14:30;9.40;;;5.50;;
18290;SDS011;9271;48.590;8.866;2023-09-30T02:16:58;16.33;;;7.50;;
18290;SDS011;9271;48.590;8.866;2023-09-30T02:19:24;9.23;;;5.67;;
18290;SDS011;9271;48.590;8.866;2023-09-30T02:21:52;9.10;;;5.00;;
18290;SDS011;9271;48.590;8.866;2023-09-30T02:24:18;9.70;;;4.77;;
18290;SDS011;9271;48.590;8.866;2023-09-30T02:26:47;7.67;;;4.60;;
18290;SDS011;9271;48.590;8.866;2023-09-30T02:29:13;6.00;;;4.27;;
18290;SDS011;9271;48.590;8.866;2023-09-30T02:31:41;6.77;;;4.10;;
18290;SDS011;9271;48.590;8.866;2023-09-30T02:34:08;7.60;;;4.30;;
18290;SDS011;9271;48.590;8.866;2023-09-30T02:36:35;6.73;;;4.17;;
18290;SDS011;9271;48.590;8.866;2023-09-30T02:39:03;4.93;;;3.37;;
18290;SDS011;9271;48.590;8.866;2023-09-30T02:41:29;6.33;;;4.00;;
18290;SDS011;9271;48.590;8.866;2023-09-30T02:43:56;6.07;;;3.53;;
18290;SDS011;9271;48.590;8.866;2023-09-30T02:46:23;5.50;;;3.37;;
18290;SDS011;9271;48.590;8.866;2023-09-30T02:48:54;6.00;;;3.63;;
18290;SDS011;9271;48.590;8.866;2023-09-30T02:51:20;4.97;;;3.40;;
18290;SDS011;9271;48.590;8.866;2023-09-30T02:53:46;7.80;;;4.30;;
18290;SDS011;9271;48.590;8.866;2023-09-30T02:56:13;7.23;;;4.00;;
18290;SDS011;9271;48.590;8.866;2023-09-30T02:58:40;6.70;;;3.80;;
18290;SDS011;9271;48.590;8.866;2023-09-30T03:01:07;5.37;;;3.60;;
18290;SDS011;9271;48.590;8.866;2023-09-30T03:03:34;6.20;;;3.70;;
18290;SDS011;9271;48.590;8.866;2023-09-30T03:06:03;5.37;;;3.47;;
18290;SDS011;9271;48.590;8.866;2023-09-30T03:08:31;4.87;;;3.20;;
18290;SDS011;9271;48.590;8.866;2023-09-30T03:10:57;4.83;;;2.97;;
18290;SDS011;9271;48.590;8.866;2023-09-30T03:13:24;6.23;;;3.57;;
18290;SDS011;9271;48.590;8.866;2023-09-30T03:15:52;6.33;;;3.50;;
18290;SDS011;9271;48.590;8.866;2023-09-30T03:18:18;4.43;;;3.20;;
18290;SDS011;9271;48.590;8.866;2023-09-30T03:20:48;5.00;;;3.23;;
18290;SDS011;9271;48.590;8.866;2023-09-30T03:23:17;5.20;;;3.20;;
18290;SDS011;9271;48.590;8.866;2023-09-30T03:25:44;6.57;;;3.27;;
18290;SDS011;9271;48.590;8.866;2023-09-30T03:28:11;4.00;;;3.03;;
18290;SDS011;9271;48.590;8.866;2023-09-30T03:30:40;4.77;;;3.27;;
18290;SDS011;9271;48.590;8.866;2023-09-30T03:33:06;5.57;;;3.20;;
18290;SDS011;9271;48.590;8.866;2023-09-30T03:35:33;4.97;;;3.30;;
18290;SDS011;9271;48.590;8.866;2023-09-30T03:38:01;4.50;;;3.30;;
18290;SDS011;9271;48.590;8.866;2023-09-30T03:40:31;5.17;;;3.40;;
18290;SDS011;9271;48.590;8.866;2023-09-30T03:42:58;4.93;;;2.83;;
18290;SDS011;9271;48.590;8.866;2023-09-30T03:45:25;4.50;;;3.20;;
18290;SDS011;9271;48.590;8.866;2023-09-30T03:47:52;4.83;;;3.30;;
18290;SDS011;9271;48.590;8.866;2023-09-30T03:50:18;4.87;;;3.40;;
18290;SDS011;9271;48.590;8.866;2023-09-30T03:52:48;5.03;;;3.30;;
18290;SDS011;9271;48.590;8.866;2023-09-30T03:55:15;6.50;;;3.40;;
18290;SDS011;9271;48.590;8.866;2023-09-30T03:57:44;4.40;;;3.20;;
18290;SDS011;9271;48.590;8.866;2023-09-30T04:00:13;5.07;;;3.40;;
18290;SDS011;9271;48.590;8.866;2023-09-30T04:02:43;4.50;;;3.43;;
18290;SDS011;9271;48.590;8.866;2023-09-30T04:05:13;4.73;;;3.43;;
18290;SDS011;9271;48.590;8.866;2023-09-30T04:07:41;5.53;;;2.80;;
18290;SDS011;9271;48.590;8.866;2023-09-30T04:10:09;4.80;;;3.13;;
18290;SDS011;9271;48.590;8.866;2023-09-30T04:12:36;7.30;;;3.60;;
18290;SDS011;9271;48.590;8.866;2023-09-30T04:15:04;4.63;;;3.37;;
18290;SDS011;9271;48.590;8.866;2023-09-30T04:17:31;4.30;;;3.07;;
18290;SDS011;9271;48.590;8.866;2023-09-30T04:19:58;5.50;;;3.43;;
18290;SDS011;9271;48.590;8.866;2023-09-30T04:22:25;3.87;;;3.00;;
18290;SDS011;9271;48.590;8.866;2023-09-30T04:24:54;7.07;;;3.10;;
18290;SDS011;9271;48.590;8.866;2023-09-30T04:27:21;5.53;;;3.07;;
18290;SDS011;9271;48.590;8.866;2023-09-30T04:29:48;4.27;;;3.20;;
18290;SDS011;9271;48.590;8.866;2023-09-30T04:32:16;4.83;;;3.43;;
18290;SDS011;9271;48.590;8.866;2023-09-30T04:34:44;5.50;;;3.50;;
18290;SDS011;9271;48.590;8.866;2023-09-30T04:37:11;3.70;;;3.13;;
18290;SDS011;9271;48.590;8.866;2023-09-30T04:39:38;7.47;;;3.27;;
18290;SDS011;9271;48.590;8.866;2023-09-30T04:42:05;5.17;;;3.30;;
18290;SDS011;9271;48.590;8.866;2023-09-30T04:44:36;6.27;;;3.47;;
18290;SDS011;9271;48.590;8.866;2023-09-30T04:47:03;5.07;;;3.40;;
18290;SDS011;9271;48.590;8.866;2023-09-30T04:49:31;5.83;;;3.50;;
18290;SDS011;9271;48.590;8.866;2023-09-30T04:51:57;4.03;;;3.27;;
18290;SDS011;9271;48.590;8.866;2023-09-30T04:54:25;4.53;;;3.53;;
18290;SDS011;9271;48.590;8.866;2023-09-30T04:56:51;8.63;;;4.47;;
18290;SDS011;9271;48.590;8.866;2023-09-30T04:59:18;6.27;;;3.60;;
18290;SDS011;9271;48.590;8.866;2023-09-30T05:01:45;4.30;;;3.53;;
18290;SDS011;9271;48.590;8.866;2023-09-30T05:04:12;4.80;;;3.50;;
18290;SDS011;9271;48.590;8.866;2023-09-30T05:06:40;3.47;;;3.17;;
18290;SDS011;9271;48.590;8.866;2023-09-30T05:09:07;5.23;;;3.53;;
18290;SDS011;9271;48.590;8.866;2023-09-30T05:11:35;5.70;;;3.73;;
18290;SDS011;9271;48.590;8.866;2023-09-30T05:14:01;5.33;;;3.50;;
18290;SDS011;9271;48.590;8.866;2023-09-30T05:16:30;5.17;;;3.40;;
18290;SDS011;9271;48.590;8.866;2023-09-30T05:18:57;4.23;;;2.93;;
18290;SDS011;9271;48.590;8.866;2023-09-30T05:21:23;5.43;;;3.17;;
18290;SDS011;9271;48.590;8.866;2023-09-30T05:23:52;5.83;;;3.60;;
18290;SDS011;9271;48.590;8.866;2023-09-30T05:26:19;4.53;;;3.40;;
18290;SDS011;9271;48.590;8.866;2023-09-30T05:28:45;4.67;;;3.20;;
18290;SDS011;9271;48.590;8.866;2023-09-30T05:31:12;5.13;;;3.47;;
18290;SDS011;9271;48.590;8.866;2023-09-30T05:33:38;4.40;;;3.40;;
18290;SDS011;9271;48.590;8.866;2023-09-30T05:36:05;6.10;;;3.83;;
18290;SDS011;9271;48.590;8.866;2023-09-30T05:38:32;5.30;;;3.80;;
18290;SDS011;9271;48.590;8.866;2023-09-30T05:41:00;4.67;;;3.60;;
18290;SDS011;9271;48.590;8.866;2023-09-30T05:43:27;5.17;;;3.50;;
18290;SDS011;9271;48.590;8.866;2023-09-30T05:45:54;5.47;;;3.80;;
18290;SDS011;9271;48.590;8.866;2023-09-30T05:48:21;5.97;;;3.63;;
18290;SDS011;9271;48.590;8.866;2023-09-30T05:50:48;5.60;;;3.50;;
18290;SDS011;9271;48.590;8.866;2023-09-30T05:53:15;5.87;;;3.60;;
18290;SDS011;9271;48.590;8.866;2023-09-30T05:55:42;5.00;;;3.50;;
18290;SDS011;9271;48.590;8.866;2023-09-30T05:58:12;5.07;;;3.50;;
18290;SDS011;9271;48.590;8.866;2023-09-30T06:00:40;5.73;;;3.30;;
18290;SDS011;9271;48.590;8.866;2023-09-30T06:03:07;5.10;;;3.83;;
18290;SDS011;9271;48.590;8.866;2023-09-30T06:05:38;4.83;;;3.47;;
18290;SDS011;9271;48.590;8.866;2023-09-30T06:08:05;4.80;;;3.33;;
18290;SDS011;9271;48.590;8.866;2023-09-30T06:10:35;5.73;;;3.67;;
18290;SDS011;9271;48.590;8.866;2023-09-30T06:13:03;4.97;;;3.37;;
18290;SDS011;9271;48.590;8.866;2023-09-30T06:15:32;6.50;;;3.33;;
18290;SDS011;9271;48.590;8.866;2023-09-30T06:17:58;4.77;;;3.57;;
18290;SDS011;9271;48.590;8.866;2023-09-30T06:20:25;4.70;;;3.80;;
18290;SDS011;9271;48.590;8.866;2023-09-30T06:22:55;4.23;;;3.50;;
18290;SDS011;9271;48.590;8.866;2023-09-30T06:25:22;5.87;;;4.17;;
18290;SDS011;9271;48.590;8.866;2023-09-30T06:27:49;4.90;;;3.90;;
18290;SDS011;9271;48.590;8.866;2023-09-30T06:30:16;6.37;;;3.67;;
18290;SDS011;9271;48.590;8.866;2023-09-30T06:32:46;5.50;;;3.60;;
18290;SDS011;9271;48.590;8.866;2023-09-30T06:35:12;4.97;;;3.83;;
18290;SDS011;9271;48.590;8.866;2023-09-30T06:37:39;5.10;;;3.57;;
18290;SDS011;9271;48.590;8.866;2023-09-30T06:40:07;5.43;;;3.43;;
18290;SDS011;9271;48.590;8.866;2023-09-30T06:42:34;3.97;;;3.07;;
18290;SDS011;9271;48.590;8.866;2023-09-30T06:45:02;6.13;;;3.60;;
18290;SDS011;9271;48.590;8.866;2023-09-30T06:47:30;6.43;;;3.60;;
18290;SDS011;9271;48.590;8.866;2023-09-30T06:49:59;3.73;;;3.10;;
18290;SDS011;9271;48.590;8.866;2023-09-30T06:52:32;5.63;;;3.73;;
18290;SDS011;9271;48.590;8.866;2023-09-30T06:54:59;4.50;;;3.23;;
18290;SDS011;9271;48.590;8.866;2023-09-30T06:57:26;7.27;;;3.83;;
18290;SDS011;9271;48.590;8.866;2023-09-30T06:59:52;4.70;;;3.27;;
18290;SDS011;9271;48.590;8.866;2023-09-30T07:02:20;4.63;;;3.40;;
18290;SDS011;9271;48.590;8.866;2023-09-30T07:04:49;3.60;;;3.03;;
18290;SDS011;9271;48.590;8.866;2023-09-30T07:07:17;4.40;;;2.93;;
18290;SDS011;9271;48.590;8.866;2023-09-30T07:09:44;6.73;;;3.70;;
18290;SDS011;9271;48.590;8.866;2023-09-30T07:12:10;4.10;;;3.33;;
18290;SDS011;9271;48.590;8.866;2023-09-30T07:14:37;6.00;;;3.63;;
18290;SDS011;9271;48.590;8.866;2023-09-30T07:17:04;4.83;;;3.50;;
18290;SDS011;9271;48.590;8.866;2023-09-30T07:19:31;6.57;;;3.20;;
18290;SDS011;9271;48.590;8.866;2023-09-30T07:21:57;3.77;;;3.30;;
18290;SDS011;9271;48.590;8.866;2023-09-30T07:24:25;6.70;;;3.60;;
18290;SDS011;9271;48.590;8.866;2023-09-30T07:26:52;4.70;;;3.37;;
18290;SDS011;9271;48.590;8.866;2023-09-30T07:29:20;4.40;;;3.20;;
18290;SDS011;9271;48.590;8.866;2023-09-30T07:31:46;4.50;;;2.93;;
18290;SDS011;9271;48.590;8.866;2023-09-30T07:34:13;7.20;;;3.70;;
18290;SDS011;9271;48.590;8.866;2023-09-30T07:36:40;6.30;;;3.17;;
18290;SDS011;9271;48.590;8.866;2023-09-30T07:39:06;4.70;;;2.90;;
18290;SDS011;9271;48.590;8.866;2023-09-30T07:41:35;6.03;;;3.00;;
18290;SDS011;9271;48.590;8.866;2023-09-30T07:44:02;3.87;;;2.73;;
18290;SDS011;9271;48.590;8.866;2023-09-30T07:46:30;6.77;;;3.07;;
18290;SDS011;9271;48.590;8.866;2023-09-30T07:48:56;4.03;;;3.30;;
18290;SDS011;9271;48.590;8.866;2023-09-30T07:51:24;7.40;;;3.37;;
18290;SDS011;9271;48.590;8.866;2023-09-30T07:53:51;5.47;;;3.77;;
18290;SDS011;9271;48.590;8.866;2023-09-30T07:56:18;5.40;;;3.23;;
18290;SDS011;9271;48.590;8.866;2023-09-30T07:58:46;4.23;;;2.60;;
18290;SDS011;9271;48.590;8.866;2023-09-30T08:01:13;5.23;;;3.03;;
18290;SDS011;9271;48.590;8.866;2023-09-30T08:03:40;3.20;;;2.40;;
18290;SDS011;9271;48.590;8.866;2023-09-30T08:06:07;4.63;;;3.03;;
18290;SDS011;9271;48.590;8.866;2023-09-30T08:08:34;6.03;;;3.27;;
18290;SDS011;9271;48.590;8.866;2023-09-30T08:11:02;5.57;;;2.63;;
18290;SDS011;9271;48.590;8.866;2023-09-30T08:13:29;3.63;;;2.70;;
18290;SDS011;9271;48.590;8.866;2023-09-30T08:15:58;5.30;;;2.80;;
18290;SDS011;9271;48.590;8.866;2023-09-30T08:18:25;4.35;;;3.10;;
18290;SDS011;9271;48.590;8.866;2023-09-30T08:20:52;5.40;;;2.95;;
18290;SDS011;9271;48.590;8.866;2023-09-30T08:23:18;4.47;;;2.75;;
18290;SDS011;9271;48.590;8.866;2023-09-30T08:25:46;5.38;;;2.97;;
18290;SDS011;9271;48.590;8.866;2023-09-30T08:28:12;5.00;;;3.20;;
18290;SDS011;9271;48.590;8.866;2023-09-30T08:30:39;5.65;;;3.33;;
18290;SDS011;9271;48.590;8.866;2023-09-30T08:33:07;4.80;;;3.10;;
18290;SDS011;9271;48.590;8.866;2023-09-30T08:35:35;5.30;;;3.00;;
18290;SDS011;9271;48.590;8.866;2023-09-30T08:38:03;4.57;;;3.20;;
18290;SDS011;9271;48.590;8.866;2023-09-30T08:40:30;4.18;;;3.30;;
18290;SDS011;9271;48.590;8.866;2023-09-30T08:42:57;4.82;;;3.63;;
18290;SDS011;9271;48.590;8.866;2023-09-30T08:45:24;7.10;;;3.70;;
18290;SDS011;9271;48.590;8.866;2023-09-30T08:47:56;5.37;;;3.50;;
18290;SDS011;9271;48.590;8.866;2023-09-30T08:50:27;4.97;;;3.40;;
18290;SDS011;9271;48.590;8.866;2023-09-30T08:52:54;5.30;;;3.20;;
18290;SDS011;9271;48.590;8.866;2023-09-30T08:55:21;12.43;;;3.90;;
18290;SDS011;9271;48.590;8.866;2023-09-30T08:57:49;4.13;;;3.30;;
18290;SDS011;9271;48.590;8.866;2023-09-30T09:00:16;4.93;;;3.20;;
18290;SDS011;9271;48.590;8.866;2023-09-30T09:02:44;7.53;;;3.57;;
18290;SDS011;9271;48.590;8.866;2023-09-30T09:05:11;5.03;;;3.83;;
18290;SDS011;9271;48.590;8.866;2023-09-30T09:07:39;4.43;;;3.67;;
18290;SDS011;9271;48.590;8.866;2023-09-30T09:10:08;4.10;;;3.70;;
18290;SDS011;9271;48.590;8.866;2023-09-30T09:12:38;5.57;;;3.97;;
18290;SDS011;9271;48.590;8.866;2023-09-30T09:15:06;4.87;;;4.07;;
18290;SDS011;9271;48.590;8.866;2023-09-30T09:17:43;5.73;;;4.00;;
18290;SDS011;9271;48.590;8.866;2023-09-30T09:20:11;4.30;;;3.30;;
18290;SDS011;9271;48.590;8.866;2023-09-30T09:22:46;6.07;;;4.10;;
18290;SDS011;9271;48.590;8.866;2023-09-30T09:25:15;6.03;;;3.60;;
18290;SDS011;9271;48.590;8.866;2023-09-30T09:27:42;6.63;;;3.92;;
18290;SDS011;9271;48.590;8.866;2023-09-30T09:30:16;8.38;;;3.95;;
18290;SDS011;9271;48.590;8.866;2023-09-30T09:32:54;4.95;;;3.53;;
18290;SDS011;9271;48.590;8.866;2023-09-30T09:35:24;5.60;;;4.07;;
18290;SDS011;9271;48.590;8.866;2023-09-30T09:37:55;5.80;;;3.75;;
18290;SDS011;9271;48.590;8.866;2023-09-30T09:40:23;6.13;;;3.88;;
18290;SDS011;9271;48.590;8.866;2023-09-30T09:42:51;6.13;;;4.20;;
18290;SDS011;9271;48.590;8.866;2023-09-30T09:45:20;7.63;;;3.88;;
18290;SDS011;9271;48.590;8.866;2023-09-30T09:47:48;4.72;;;3.60;;
18290;SDS011;9271;48.590;8.866;2023-09-30T09:50:16;6.10;;;4.60;;
18290;SDS011;9271;48.590;8.866;2023-09-30T09:52:44;6.45;;;4.32;;
18290;SDS011;9271;48.590;8.866;2023-09-30T09:55:14;6.20;;;4.35;;
18290;SDS011;9271;48.590;8.866;2023-09-30T09:57:42;6.03;;;4.50;;
18290;SDS011;9271;48.590;8.866;2023-09-30T10:00:10;6.22;;;4.25;;
18290;SDS011;9271;48.590;8.866;2023-09-30T10:02:39;5.60;;;3.95;;
18290;SDS011;9271;48.590;8.866;2023-09-30T10:05:06;5.63;;;4.45;;
18290;SDS011;9271;48.590;8.866;2023-09-30T10:07:37;5.40;;;4.00;;
18290;SDS011;9271;48.590;8.866;2023-09-30T10:10:11;7.72;;;4.70;;
18290;SDS011;9271;48.590;8.866;2023-09-30T10:12:43;5.03;;;4.10;;
18290;SDS011;9271;48.590;8.866;2023-09-30T10:18:05;5.97;;;4.38;;
18290;SDS011;9271;48.590;8.866;2023-09-30T10:20:33;6.45;;;4.82;;
18290;SDS011;9271;48.590;8.866;2023-09-30T10:25:54;6.93;;;5.03;;
18290;SDS011;9271;48.590;8.866;2023-09-30T10:28:40;7.18;;;4.90;;
18290;SDS011;9271;48.590;8.866;2023-09-30T10:31:13;6.85;;;4.82;;
18290;SDS011;9271;48.590;8.866;2023-09-30T10:36:43;5.97;;;5.38;;
18290;SDS011;9271;48.590;8.866;2023-09-30T10:39:12;7.20;;;5.25;;
18290;SDS011;9271;48.590;8.866;2023-09-30T10:41:50;7.40;;;4.93;;
18290;SDS011;9271;48.590;8.866;2023-09-30T10:44:32;5.72;;;4.78;;
18290;SDS011;9271;48.590;8.866;2023-09-30T10:46:59;6.88;;;4.53;;
18290;SDS011;9271;48.590;8.866;2023-09-30T10:49:46;6.20;;;4.82;;
18290;SDS011;9271;48.590;8.866;2023-09-30T10:52:18;6.93;;;5.18;;
18290;SDS011;9271;48.590;8.866;2023-09-30T10:54:48;10.23;;;5.15;;
18290;SDS011;9271;48.590;8.866;2023-09-30T10:57:27;6.80;;;5.15;;
18290;SDS011;9271;48.590;8.866;2023-09-30T11:00:06;7.78;;;5.70;;
18290;SDS011;9271;48.590;8.866;2023-09-30T11:02:39;11.45;;;6.18;;
18290;SDS011;9271;48.590;8.866;2023-09-30T11:05:14;9.13;;;6.50;;
18290;SDS011;9271;48.590;8.866;2023-09-30T11:07:40;8.48;;;5.72;;
18290;SDS011;9271;48.590;8.866;2023-09-30T11:10:09;9.95;;;5.90;;
18290;SDS011;9271;48.590;8.866;2023-09-30T11:12:38;10.25;;;7.13;;
18290;SDS011;9271;48.590;8.866;2023-09-30T11:15:18;10.57;;;6.47;;
18290;SDS011;9271;48.590;8.866;2023-09-30T11:17:46;10.30;;;7.33;;
18290;SDS011;9271;48.590;8.866;2023-09-30T11:20:12;9.80;;;6.87;;
18290;SDS011;9271;48.590;8.866;2023-09-30T11:22:39;8.63;;;6.32;;
18290;SDS011;9271;48.590;8.866;2023-09-30T11:25:06;8.93;;;6.60;;
18290;SDS011;9271;48.590;8.866;2023-09-30T11:27:43;7.65;;;5.32;;
18290;SDS011;9271;48.590;8.866;2023-09-30T11:30:12;7.57;;;6.03;;
18290;SDS011;9271;48.590;8.866;2023-09-30T11:32:39;10.27;;;6.25;;
18290;SDS011;9271;48.590;8.866;2023-09-30T11:35:08;7.53;;;5.40;;
18290;SDS011;9271;48.590;8.866;2023-09-30T11:37:36;6.65;;;5.30;;
18290;SDS011;9271;48.590;8.866;2023-09-30T11:40:10;7.00;;;5.53;;
18290;SDS011;9271;48.590;8.866;2023-09-30T11:42:40;6.35;;;5.20;;
18290;SDS011;9271;48.590;8.866;2023-09-30T11:45:21;8.15;;;5.70;;
18290;SDS011;9271;48.590;8.866;2023-09-30T11:47:48;7.53;;;5.85;;
18290;SDS011;9271;48.590;8.866;2023-09-30T11:50:15;8.20;;;6.22;;
18290;SDS011;9271;48.590;8.866;2023-09-30T11:52:44;7.70;;;5.70;;
18290;SDS011;9271;48.590;8.866;2023-09-30T11:55:12;8.50;;;5.70;;
18290;SDS011;9271;48.590;8.866;2023-09-30T11:57:39;5.82;;;5.15;;
18290;SDS011;9271;48.590;8.866;2023-09-30T12:00:06;7.20;;;5.65;;
18290;SDS011;9271;48.590;8.866;2023-09-30T12:02:40;8.60;;;5.68;;
18290;SDS011;9271;48.590;8.866;2023-09-30T12:05:07;8.45;;;6.00;;
18290;SDS011;9271;48.590;8.866;2023-09-30T12:07:36;8.45;;;5.85;;
18290;SDS011;9271;48.590;8.866;2023-09-30T12:10:03;11.18;;;6.50;;
18290;SDS011;9271;48.590;8.866;2023-09-30T12:12:30;10.50;;;6.43;;
18290;SDS011;9271;48.590;8.866;2023-09-30T12:14:57;8.73;;;5.65;;
18290;SDS011;9271;48.590;8.866;2023-09-30T12:17:23;17.58;;;6.47;;
18290;SDS011;9271;48.590;8.866;2023-09-30T12:19:51;8.07;;;5.53;;
18290;SDS011;9271;48.590;8.866;2023-09-30T12:22:18;10.55;;;6.13;;
18290;SDS011;9271;48.590;8.866;2023-09-30T12:24:45;8.40;;;6.30;;
18290;SDS011;9271;48.590;8.866;2023-09-30T12:27:12;9.00;;;5.97;;
18290;SDS011;9271;48.590;8.866;2023-09-30T12:29:39;9.35;;;6.30;;
18290;SDS011;9271;48.590;8.866;2023-09-30T12:32:06;9.05;;;6.30;;
18290;SDS011;9271;48.590;8.866;2023-09-30T12:34:33;9.10;;;5.97;;
18290;SDS011;9271;48.590;8.866;2023-09-30T12:37:02;9.50;;;6.20;;
18290;SDS011;9271;48.590;8.866;2023-09-30T12:39:28;9.20;;;6.47;;
18290;SDS011;9271;48.590;8.866;2023-09-30T12:41:55;10.60;;;6.95;;
18290;SDS011;9271;48.590;8.866;2023-09-30T12:44:22;8.32;;;6.05;;
18290;SDS011;9271;48.590;8.866;2023-09-30T12:46:48;8.45;;;6.15;;
18290;SDS011;9271;48.590;8.866;2023-09-30T12:49:15;8.55;;;6.30;;
18290;SDS011;9271;48.590;8.866;2023-09-30T12:51:41;6.88;;;6.05;;
18290;SDS011;9271;48.590;8.866;2023-09-30T12:54:09;10.55;;;6.78;;
18290;SDS011;9271;48.590;8.866;2023-09-30T12:56:38;9.50;;;6.40;;
18290;SDS011;9271;48.590;8.866;2023-09-30T12:59:04;7.55;;;6.00;;
18290;SDS011;9271;48.590;8.866;2023-09-30T13:01:31;11.70;;;6.70;;
18290;SDS011;9271;48.590;8.866;2023-09-30T13:03:59;9.05;;;6.43;;
18290;SDS011;9271;48.590;8.866;2023-09-30T13:06:26;9.63;;;6.50;;
18290;SDS011;9271;48.590;8.866;2023-09-30T13:08:54;8.02;;;6.35;;
18290;SDS011;9271;48.590;8.866;2023-09-30T13:11:22;9.00;;;6.68;;
18290;SDS011;9271;48.590;8.866;2023-09-30T13:13:48;8.48;;;6.85;;
18290;SDS011;9271;48.590;8.866;2023-09-30T13:16:15;9.48;;;6.15;;
18290;SDS011;9271;48.590;8.866;2023-09-30T13:18:42;8.30;;;5.77;;
18290;SDS011;9271;48.590;8.866;2023-09-30T13:21:08;9.13;;;5.93;;
18290;SDS011;9271;48.590;8.866;2023-09-30T13:23:37;8.57;;;5.80;;
18290;SDS011;9271;48.590;8.866;2023-09-30T13:26:03;7.67;;;5.60;;
18290;SDS011;9271;48.590;8.866;2023-09-30T13:28:31;8.50;;;5.70;;
18290;SDS011;9271;48.590;8.866;2023-09-30T13:30:58;7.93;;;5.80;;
18290;SDS011;9271;48.590;8.866;2023-09-30T13:33:25;7.70;;;5.43;;
18290;SDS011;9271;48.590;8.866;2023-09-30T13:35:51;9.25;;;6.28;;
18290;SDS011;9271;48.590;8.866;2023-09-30T13:38:20;7.90;;;6.00;;
18290;SDS011;9271;48.590;8.866;2023-09-30T13:40:47;7.20;;;5.57;;
18290;SDS011;9271;48.590;8.866;2023-09-30T13:43:13;6.82;;;5.47;;
18290;SDS011;9271;48.590;8.866;2023-09-30T13:45:41;8.10;;;5.82;;
18290;SDS011;9271;48.590;8.866;2023-09-30T13:48:08;6.78;;;5.85;;
18290;SDS011;9271;48.590;8.866;2023-09-30T13:50:34;6.30;;;5.18;;
18290;SDS011;9271;48.590;8.866;2023-09-30T13:53:01;10.77;;;6.10;;
18290;SDS011;9271;48.590;8.866;2023-09-30T13:55:28;6.97;;;5.85;;
18290;SDS011;9271;48.590;8.866;2023-09-30T13:57:55;8.02;;;6.22;;
18290;SDS011;9271;48.590;8.866;2023-09-30T14:00:21;6.90;;;5.57;;
18290;SDS011;9271;48.590;8.866;2023-09-30T14:02:49;8.70;;;5.70;;
18290;SDS011;9271;48.590;8.866;2023-09-30T14:05:16;8.93;;;6.03;;
18290;SDS011;9271;48.590;8.866;2023-09-30T14:07:45;7.88;;;6.18;;
18290;SDS011;9271;48.590;8.866;2023-09-30T14:10:11;10.10;;;6.22;;
18290;SDS011;9271;48.590;8.866;2023-09-30T14:12:38;8.80;;;5.43;;
18290;SDS011;9271;48.590;8.866;2023-09-30T14:15:05;8.07;;;5.70;;
18290;SDS011;9271;48.590;8.866;2023-09-30T14:17:33;8.30;;;5.60;;
18290;SDS011;9271;48.590;8.866;2023-09-30T14:20:02;8.05;;;5.40;;
18290;SDS011;9271;48.590;8.866;2023-09-30T14:22:30;7.28;;;5.78;;
18290;SDS011;9271;48.590;8.866;2023-09-30T14:24:57;8.60;;;6.10;;
18290;SDS011;9271;48.590;8.866;2023-09-30T14:27:23;7.75;;;5.90;;
18290;SDS011;9271;48.590;8.866;2023-09-30T14:29:51;8.35;;;5.45;;
18290;SDS011;9271;48.590;8.866;2023-09-30T14:32:17;7.75;;;4.75;;
18290;SDS011;9271;48.590;8.866;2023-09-30T14:34:44;6.57;;;5.28;;
18290;SDS011;9271;48.590;8.866;2023-09-30T14:37:12;7.07;;;5.25;;
18290;SDS011;9271;48.590;8.866;2023-09-30T14:39:39;6.85;;;4.63;;
18290;SDS011;9271;48.590;8.866;2023-09-30T14:42:06;8.65;;;5.47;;
18290;SDS011;9271;48.590;8.866;2023-09-30T14:44:32;10.82;;;5.15;;
18290;SDS011;9271;48.590;8.866;2023-09-30T14:46:59;6.10;;;5.15;;
18290;SDS011;9271;48.590;8.866;2023-09-30T14:49:26;6.13;;;4.88;;
18290;SDS011;9271;48.590;8.866;2023-09-30T14:51:52;5.93;;;4.88;;
18290;SDS011;9271;48.590;8.866;2023-09-30T14:54:20;6.57;;;4.63;;
18290;SDS011;9271;48.590;8.866;2023-09-30T14:56:47;7.20;;;5.10;;
18290;SDS011;9271;48.590;8.866;2023-09-30T14:59:13;6.53;;;5.07;;
18290;SDS011;9271;48.590;8.866;2023-09-30T15:01:40;7.50;;;5.43;;
18290;SDS011;9271;48.590;8.866;2023-09-30T15:04:07;9.07;;;5.40;;
18290;SDS011;9271;48.590;8.866;2023-09-30T15:06:34;7.78;;;5.13;;
18290;SDS011;9271;48.590;8.866;2023-09-30T15:09:01;7.35;;;5.15;;
18290;SDS011;9271;48.590;8.866;2023-09-30T15:11:30;8.25;;;5.22;;
18290;SDS011;9271;48.590;8.866;2023-09-30T15:13:57;7.53;;;5.00;;